sensor_id;sensor_type;location;lat;lon;timestamp;pressure;altitude;pressure_sealevel;temperature;humidity
10064;BME280;5071;52.360;13.134;2024-02-28T00:00:55;100686.41;;;3.45;100.00
10064;BME280;5071;52.360;13.134;2024-02-28T00:05:59;100678.56;;;3.48;100.00
10064;BME280;5071;52.360;13.134;2024-02-28T00:11:01;100679.38;;;3.44;100.00
10064;BME280;5071;52.360;13.134;2024-02-28T00:16:03;100680.22;;;3.43;100.00
10064;BME280;5071;52.360;13.134;2024-02-28T00:21:09;100677.44;;;3.31;100.00
10064;BME280;5071;52.360;13.134;2024-02-28T00:26:13;100686.44;;;3.48;100.00
10064;BME280;5071;52.360;13.134;2024-02-28T00:31:15;100684.63;;;3.44;100.00
10064;BME280;5071;52.360;13.134;2024-02-28T00:36:18;100681.03;;;3.38;100.00
10064;BME280;5071;52.360;13.134;2024-02-28T00:41:21;100685.38;;;3.34;100.00
10064;BME280;5071;52.360;13.134;2024-02-28T00:46:22;100689.19;;;3.56;100.00
10064;BME280;5071;52.360;13.134;2024-02-28T00:51:26;100689.03;;;3.45;100.00
10064;BME280;5071;52.360;13.134;2024-02-28T00:56:28;100692.50;;;3.44;100.00
10064;BME280;5071;52.360;13.134;2024-02-28T01:01:29;100689.28;;;3.64;100.00
10064;BME280;5071;52.360;13.134;2024-02-28T01:06:33;100688.22;;;3.49;100.00
10064;BME280;5071;52.360;13.134;2024-02-28T01:11:35;100684.63;;;3.44;100.00
10064;BME280;5071;52.360;13.134;2024-02-28T01:16:37;100688.41;;;3.63;100.00
10064;BME280;5071;52.360;13.134;2024-02-28T01:21:40;100689.78;;;3.38;100.00
10064;BME280;5071;52.360;13.134;2024-02-28T01:26:42;100693.50;;;3.53;100.00
10064;BME280;5071;52.360;13.134;2024-02-28T01:31:44;100697.03;;;3.55;100.00
10064;BME280;5071;52.360;13.134;2024-02-28T01:36:47;100687.19;;;3.41;100.00
10064;BME280;5071;52.360;13.134;2024-02-28T01:41:51;100687.41;;;3.54;100.00
10064;BME280;5071;52.360;13.134;2024-02-28T01:46:53;100682.97;;;3.49;100.00
10064;BME280;5071;52.360;13.134;2024-02-28T01:51:57;100679.50;;;3.52;100.00
10064;BME280;5071;52.360;13.134;2024-02-28T01:56:59;100682.81;;;3.40;100.00
10064;BME280;5071;52.360;13.134;2024-02-28T02:02:02;100678.56;;;3.48;100.00
10064;BME280;5071;52.360;13.134;2024-02-28T02:07:06;100679.66;;;3.63;100.00
10064;BME280;5071;52.360;13.134;2024-02-28T02:12:09;100687.38;;;3.52;100.00
10064;BME280;5071;52.360;13.134;2024-02-28T02:17:11;100695.19;;;3.47;100.00
10064;BME280;5071;52.360;13.134;2024-02-28T02:22:14;100695.06;;;3.41;100.00
10064;BME280;5071;52.360;13.134;2024-02-28T02:27:18;100701.69;;;3.73;100.00
10064;BME280;5071;52.360;13.134;2024-02-28T02:32:20;100700.50;;;3.52;100.00
10064;BME280;5071;52.360;13.134;2024-02-28T02:37:22;100711.16;;;3.63;100.00
10064;BME280;5071;52.360;13.134;2024-02-28T02:42:26;100720.66;;;3.55;100.00
10064;BME280;5071;52.360;13.134;2024-02-28T02:47:27;100723.28;;;3.55;100.00
10064;BME280;5071;52.360;13.134;2024-02-28T02:52:30;100717.84;;;3.42;100.00
10064;BME280;5071;52.360;13.134;2024-02-28T02:57:33;100727.53;;;3.46;100.00
10064;BME280;5071;52.360;13.134;2024-02-28T03:02:35;100726.56;;;3.41;100.00
10064;BME280;5071;52.360;13.134;2024-02-28T03:07:37;100721.44;;;3.47;100.00
10064;BME280;5071;52.360;13.134;2024-02-28T03:12:41;100721.22;;;3.35;100.00
10064;BME280;5071;52.360;13.134;2024-02-28T03:17:43;100728.03;;;3.24;100.00
10064;BME280;5071;52.360;13.134;2024-02-28T03:22:46;100724.59;;;3.28;100.00
10064;BME280;5071;52.360;13.134;2024-02-28T03:27:49;100723.63;;;3.21;100.00
10064;BME280;5071;52.360;13.134;2024-02-28T03:32:51;100726.16;;;3.17;100.00
10064;BME280;5071;52.360;13.134;2024-02-28T03:37:54;100724.22;;;3.06;100.00
10064;BME280;5071;52.360;13.134;2024-02-28T03:42:57;100731.63;;;3.29;100.00
10064;BME280;5071;52.360;13.134;2024-02-28T03:47:59;100726.38;;;3.29;100.00
10064;BME280;5071;52.360;13.134;2024-02-28T03:53:01;100743.75;;;3.24;100.00
10064;BME280;5071;52.360;13.134;2024-02-28T03:58:05;100736.91;;;3.32;100.00
10064;BME280;5071;52.360;13.134;2024-02-28T04:03:07;100742.91;;;3.26;100.00
10064;BME280;5071;52.360;13.134;2024-02-28T04:08:09;100742.91;;;3.25;100.00
10064;BME280;5071;52.360;13.134;2024-02-28T04:13:12;100742.19;;;3.35;100.00
10064;BME280;5071;52.360;13.134;2024-02-28T04:18:14;100743.81;;;3.27;100.00
10064;BME280;5071;52.360;13.134;2024-02-28T04:23:17;100751.38;;;3.08;100.00
10064;BME280;5071;52.360;13.134;2024-02-28T04:28:20;100752.34;;;3.14;100.00
10064;BME280;5071;52.360;13.134;2024-02-28T04:33:22;100759.28;;;3.13;100.00
10064;BME280;5071;52.360;13.134;2024-02-28T04:38:25;100764.75;;;3.24;100.00
10064;BME280;5071;52.360;13.134;2024-02-28T04:43:28;100778.94;;;3.35;100.00
10064;BME280;5071;52.360;13.134;2024-02-28T04:48:30;100782.75;;;3.05;100.00
10064;BME280;5071;52.360;13.134;2024-02-28T04:53:33;100775.94;;;3.14;100.00
10064;BME280;5071;52.360;13.134;2024-02-28T04:58:37;100779.41;;;3.13;100.00
10064;BME280;5071;52.360;13.134;2024-02-28T05:03:39;100798.13;;;3.33;100.00
10064;BME280;5071;52.360;13.134;2024-02-28T05:08:41;100801.19;;;3.08;100.00
10064;BME280;5071;52.360;13.134;2024-02-28T05:13:44;100807.19;;;3.03;100.00
10064;BME280;5071;52.360;13.134;2024-02-28T05:18:46;100819.44;;;3.04;100.00
10064;BME280;5071;52.360;13.134;2024-02-28T05:23:48;100813.66;;;3.22;100.00
10064;BME280;5071;52.360;13.134;2024-02-28T05:28:52;100816.78;;;3.01;100.00
10064;BME280;5071;52.360;13.134;2024-02-28T05:33:55;100817.28;;;3.27;100.00
10064;BME280;5071;52.360;13.134;2024-02-28T05:38:59;100815.16;;;3.09;100.00
10064;BME280;5071;52.360;13.134;2024-02-28T05:44:03;100819.03;;;3.28;100.00
10064;BME280;5071;52.360;13.134;2024-02-28T05:49:05;100824.75;;;3.07;100.00
10064;BME280;5071;52.360;13.134;2024-02-28T05:54:07;100834.25;;;3.02;100.00
10064;BME280;5071;52.360;13.134;2024-02-28T05:59:11;100850.78;;;2.98;100.00
10064;BME280;5071;52.360;13.134;2024-02-28T06:04:13;100857.06;;;3.04;100.00
10064;BME280;5071;52.360;13.134;2024-02-28T06:09:15;100863.59;;;3.26;100.00
10064;BME280;5071;52.360;13.134;2024-02-28T06:14:18;100864.84;;;3.01;100.00
10064;BME280;5071;52.360;13.134;2024-02-28T06:19:20;100870.69;;;2.88;100.00
10064;BME280;5071;52.360;13.134;2024-02-28T06:24:22;100897.00;;;2.92;100.00
10064;BME280;5071;52.360;13.134;2024-02-28T06:29:26;100893.25;;;2.80;100.00
10064;BME280;5071;52.360;13.134;2024-02-28T06:34:28;100885.16;;;2.69;100.00
10064;BME280;5071;52.360;13.134;2024-02-28T06:39:30;100899.22;;;2.72;100.00
10064;BME280;5071;52.360;13.134;2024-02-28T06:44:33;100902.03;;;2.82;100.00
10064;BME280;5071;52.360;13.134;2024-02-28T06:49:35;100903.91;;;2.89;100.00
10064;BME280;5071;52.360;13.134;2024-02-28T06:54:38;100904.50;;;2.76;100.00
10064;BME280;5071;52.360;13.134;2024-02-28T06:59:44;100918.19;;;2.62;100.00
10064;BME280;5071;52.360;13.134;2024-02-28T07:04:46;100919.78;;;2.56;100.00
10064;BME280;5071;52.360;13.134;2024-02-28T07:09:49;100924.50;;;2.70;100.00
10064;BME280;5071;52.360;13.134;2024-02-28T07:14:52;100936.16;;;2.47;100.00
10064;BME280;5071;52.360;13.134;2024-02-28T07:19:54;100923.66;;;2.73;100.00
10064;BME280;5071;52.360;13.134;2024-02-28T07:24:56;100928.53;;;2.56;100.00
10064;BME280;5071;52.360;13.134;2024-02-28T07:30:01;100917.13;;;2.54;100.00
10064;BME280;5071;52.360;13.134;2024-02-28T07:35:03;100918.97;;;2.58;100.00
10064;BME280;5071;52.360;13.134;2024-02-28T07:40:07;100917.88;;;2.48;100.00
10064;BME280;5071;52.360;13.134;2024-02-28T07:45:10;100935.34;;;2.48;100.00
10064;BME280;5071;52.360;13.134;2024-02-28T07:50:14;100939.94;;;2.58;100.00
10064;BME280;5071;52.360;13.134;2024-02-28T07:55:17;100950.06;;;2.81;100.00
10064;BME280;5071;52.360;13.134;2024-02-28T08:00:21;100962.69;;;2.59;100.00
10064;BME280;5071;52.360;13.134;2024-02-28T08:05:23;100962.88;;;3.06;100.00
10064;BME280;5071;52.360;13.134;2024-02-28T08:10:26;100959.88;;;2.89;100.00
10064;BME280;5071;52.360;13.134;2024-02-28T08:15:29;100964.84;;;2.79;100.00
10064;BME280;5071;52.360;13.134;2024-02-28T08:20:32;100974.28;;;2.70;100.00
10064;BME280;5071;52.360;13.134;2024-02-28T08:25:34;100980.19;;;3.00;100.00
10064;BME280;5071;52.360;13.134;2024-02-28T08:30:38;100985.75;;;2.76;100.00
10064;BME280;5071;52.360;13.134;2024-02-28T08:35:40;100989.41;;;2.82;100.00
10064;BME280;5071;52.360;13.134;2024-02-28T08:40:42;100990.59;;;2.59;100.00
10064;BME280;5071;52.360;13.134;2024-02-28T08:45:45;100991.63;;;2.65;100.00
10064;BME280;5071;52.360;13.134;2024-02-28T08:50:47;100991.38;;;2.91;100.00
10064;BME280;5071;52.360;13.134;2024-02-28T08:55:49;100988.00;;;2.98;100.00
10064;BME280;5071;52.360;13.134;2024-02-28T09:00:54;100975.34;;;3.18;100.00
10064;BME280;5071;52.360;13.134;2024-02-28T09:05:56;100977.69;;;3.47;100.00
10064;BME280;5071;52.360;13.134;2024-02-28T09:10:58;100980.31;;;3.45;100.00
10064;BME280;5071;52.360;13.134;2024-02-28T09:16:02;100968.38;;;3.63;100.00
10064;BME280;5071;52.360;13.134;2024-02-28T09:21:07;100966.72;;;3.66;99.62
10064;BME280;5071;52.360;13.134;2024-02-28T09:26:09;100975.09;;;3.48;99.44
10064;BME280;5071;52.360;13.134;2024-02-28T09:31:12;100983.69;;;3.41;99.66
10064;BME280;5071;52.360;13.134;2024-02-28T09:36:14;100994.34;;;3.47;100.00
10064;BME280;5071;52.360;13.134;2024-02-28T09:41:17;100990.19;;;3.60;100.00
10064;BME280;5071;52.360;13.134;2024-02-28T09:46:20;101003.03;;;3.46;100.00
10064;BME280;5071;52.360;13.134;2024-02-28T09:51:23;101003.88;;;3.44;98.16
10064;BME280;5071;52.360;13.134;2024-02-28T09:56:26;101006.69;;;3.55;98.30
10064;BME280;5071;52.360;13.134;2024-02-28T10:01:30;101009.59;;;3.67;96.97
10064;BME280;5071;52.360;13.134;2024-02-28T10:06:35;101023.25;;;3.50;98.42
10064;BME280;5071;52.360;13.134;2024-02-28T10:11:37;101022.03;;;3.76;96.96
10064;BME280;5071;52.360;13.134;2024-02-28T10:16:42;101035.13;;;3.74;94.71
10064;BME280;5071;52.360;13.134;2024-02-28T10:21:46;101030.75;;;3.75;94.15
10064;BME280;5071;52.360;13.134;2024-02-28T10:26:48;101041.78;;;3.57;94.30
10064;BME280;5071;52.360;13.134;2024-02-28T10:31:51;101042.25;;;3.81;91.32
10064;BME280;5071;52.360;13.134;2024-02-28T10:36:53;101054.97;;;3.61;94.04
10064;BME280;5071;52.360;13.134;2024-02-28T10:41:56;101062.00;;;3.62;91.58
10064;BME280;5071;52.360;13.134;2024-02-28T10:47:07;101061.41;;;3.77;90.90
10064;BME280;5071;52.360;13.134;2024-02-28T10:52:14;101062.84;;;4.04;90.70
10064;BME280;5071;52.360;13.134;2024-02-28T10:57:20;101078.75;;;3.69;91.70
10064;BME280;5071;52.360;13.134;2024-02-28T11:02:25;101063.84;;;3.66;91.00
10064;BME280;5071;52.360;13.134;2024-02-28T11:07:30;101070.91;;;3.70;90.55
10064;BME280;5071;52.360;13.134;2024-02-28T11:12:32;101071.78;;;3.71;91.46
10064;BME280;5071;52.360;13.134;2024-02-28T11:17:36;101069.13;;;3.69;90.33
10064;BME280;5071;52.360;13.134;2024-02-28T11:22:40;101077.44;;;3.89;90.45
10064;BME280;5071;52.360;13.134;2024-02-28T11:27:46;101075.72;;;3.92;89.43
10064;BME280;5071;52.360;13.134;2024-02-28T11:32:52;101061.19;;;4.59;86.83
10064;BME280;5071;52.360;13.134;2024-02-28T11:37:55;101076.00;;;4.07;89.49
10064;BME280;5071;52.360;13.134;2024-02-28T11:42:58;101075.91;;;4.01;90.67
10064;BME280;5071;52.360;13.134;2024-02-28T11:48:03;101078.84;;;4.18;89.76
10064;BME280;5071;52.360;13.134;2024-02-28T11:53:05;101086.97;;;4.32;89.91
10064;BME280;5071;52.360;13.134;2024-02-28T11:58:07;101087.13;;;4.38;88.46
10064;BME280;5071;52.360;13.134;2024-02-28T12:03:11;101083.94;;;3.66;91.06
10064;BME280;5071;52.360;13.134;2024-02-28T12:08:13;101092.38;;;3.94;88.96
10064;BME280;5071;52.360;13.134;2024-02-28T12:13:16;101081.41;;;4.15;89.48
10064;BME280;5071;52.360;13.134;2024-02-28T12:18:20;101086.16;;;3.88;87.94
10064;BME280;5071;52.360;13.134;2024-02-28T12:23:22;101071.19;;;4.28;87.67
10064;BME280;5071;52.360;13.134;2024-02-28T12:28:24;101067.66;;;4.26;86.71
10064;BME280;5071;52.360;13.134;2024-02-28T12:33:27;101070.22;;;4.74;84.32
10064;BME280;5071;52.360;13.134;2024-02-28T12:38:29;101085.47;;;4.95;84.16
10064;BME280;5071;52.360;13.134;2024-02-28T12:43:31;101076.31;;;4.73;82.41
10064;BME280;5071;52.360;13.134;2024-02-28T12:48:38;101072.03;;;5.34;81.00
10064;BME280;5071;52.360;13.134;2024-02-28T12:53:41;101075.06;;;4.49;83.19
10064;BME280;5071;52.360;13.134;2024-02-28T12:58:43;101071.88;;;5.22;81.38
10064;BME280;5071;52.360;13.134;2024-02-28T13:03:46;101076.38;;;5.32;84.05
10064;BME280;5071;52.360;13.134;2024-02-28T13:08:51;101078.31;;;5.45;80.96
10064;BME280;5071;52.360;13.134;2024-02-28T13:13:53;101073.72;;;5.28;80.70
10064;BME280;5071;52.360;13.134;2024-02-28T13:18:56;101068.72;;;4.90;83.82
10064;BME280;5071;52.360;13.134;2024-02-28T13:23:58;101068.41;;;5.26;79.53
10064;BME280;5071;52.360;13.134;2024-02-28T13:29:01;101062.28;;;5.27;81.07
10064;BME280;5071;52.360;13.134;2024-02-28T13:34:04;101049.16;;;4.72;82.92
10064;BME280;5071;52.360;13.134;2024-02-28T13:39:06;101049.25;;;4.77;83.51
10064;BME280;5071;52.360;13.134;2024-02-28T13:44:09;101043.72;;;5.16;81.22
10064;BME280;5071;52.360;13.134;2024-02-28T13:49:13;101050.41;;;5.57;78.76
10064;BME280;5071;52.360;13.134;2024-02-28T13:54:15;101045.53;;;5.91;77.78
10064;BME280;5071;52.360;13.134;2024-02-28T13:59:17;101039.63;;;6.07;78.08
10064;BME280;5071;52.360;13.134;2024-02-28T14:04:21;101035.13;;;5.97;76.33
10064;BME280;5071;52.360;13.134;2024-02-28T14:09:23;101040.41;;;6.00;75.92
10064;BME280;5071;52.360;13.134;2024-02-28T14:14:25;101039.13;;;6.45;74.98
10064;BME280;5071;52.360;13.134;2024-02-28T14:19:29;101028.66;;;6.54;74.87
10064;BME280;5071;52.360;13.134;2024-02-28T14:24:31;101029.59;;;6.61;73.09
10064;BME280;5071;52.360;13.134;2024-02-28T14:29:33;101033.91;;;6.54;73.21
10064;BME280;5071;52.360;13.134;2024-02-28T14:34:39;101040.09;;;6.53;73.09
10064;BME280;5071;52.360;13.134;2024-02-28T14:39:41;101035.34;;;6.18;73.94
10064;BME280;5071;52.360;13.134;2024-02-28T14:44:43;101038.75;;;6.08;75.52
10064;BME280;5071;52.360;13.134;2024-02-28T14:49:48;101032.66;;;6.12;74.10
10064;BME280;5071;52.360;13.134;2024-02-28T14:54:51;101047.91;;;6.44;74.72
10064;BME280;5071;52.360;13.134;2024-02-28T14:59:56;101044.28;;;6.33;74.86
10064;BME280;5071;52.360;13.134;2024-02-28T15:05:03;101039.13;;;6.45;75.78
10064;BME280;5071;52.360;13.134;2024-02-28T15:10:07;101042.25;;;6.07;76.09
10064;BME280;5071;52.360;13.134;2024-02-28T15:15:10;101050.94;;;5.97;76.19
10064;BME280;5071;52.360;13.134;2024-02-28T15:20:17;101054.47;;;6.00;77.14
10064;BME280;5071;52.360;13.134;2024-02-28T15:25:18;101050.78;;;5.86;75.49
10064;BME280;5071;52.360;13.134;2024-02-28T15:30:20;101047.81;;;5.60;76.84
10064;BME280;5071;52.360;13.134;2024-02-28T15:35:24;101037.19;;;5.55;78.51
10064;BME280;5071;52.360;13.134;2024-02-28T15:40:26;101043.34;;;5.54;77.28
10064;BME280;5071;52.360;13.134;2024-02-28T15:45:28;101043.16;;;5.40;78.37
10064;BME280;5071;52.360;13.134;2024-02-28T15:50:32;101037.03;;;5.41;78.25
10064;BME280;5071;52.360;13.134;2024-02-28T15:55:35;101037.69;;;5.25;79.83
10064;BME280;5071;52.360;13.134;2024-02-28T16:00:36;101034.00;;;5.14;81.18
10064;BME280;5071;52.360;13.134;2024-02-28T16:05:40;101042.22;;;4.77;81.34
10064;BME280;5071;52.360;13.134;2024-02-28T16:10:42;101039.53;;;4.74;82.55
10064;BME280;5071;52.360;13.134;2024-02-28T16:15:44;101038.34;;;4.55;83.36
10064;BME280;5071;52.360;13.134;2024-02-28T16:20:53;101044.06;;;4.31;84.91
10064;BME280;5071;52.360;13.134;2024-02-28T16:25:54;101041.88;;;4.05;86.46
10064;BME280;5071;52.360;13.134;2024-02-28T16:30:57;101048.13;;;3.68;87.42
10064;BME280;5071;52.360;13.134;2024-02-28T16:36:00;101052.81;;;3.43;90.13
10064;BME280;5071;52.360;13.134;2024-02-28T16:41:03;101055.06;;;3.25;90.99
10064;BME280;5071;52.360;13.134;2024-02-28T16:46:05;101061.56;;;3.03;92.38
10064;BME280;5071;52.360;13.134;2024-02-28T16:51:10;101066.25;;;2.80;94.25
10064;BME280;5071;52.360;13.134;2024-02-28T16:56:12;101068.63;;;2.36;95.68
10064;BME280;5071;52.360;13.134;2024-02-28T17:01:14;101070.69;;;2.14;97.32
10064;BME280;5071;52.360;13.134;2024-02-28T17:06:20;101086.66;;;1.93;98.19
10064;BME280;5071;52.360;13.134;2024-02-28T17:11:22;101077.50;;;1.77;99.34
10064;BME280;5071;52.360;13.134;2024-02-28T17:16:25;101080.59;;;1.64;100.00
10064;BME280;5071;52.360;13.134;2024-02-28T17:21:29;101079.88;;;1.39;100.00
10064;BME280;5071;52.360;13.134;2024-02-28T17:26:31;101076.31;;;1.37;100.00
10064;BME280;5071;52.360;13.134;2024-02-28T17:31:33;101084.59;;;1.24;100.00
10064;BME280;5071;52.360;13.134;2024-02-28T17:36:39;101097.00;;;1.02;100.00
10064;BME280;5071;52.360;13.134;2024-02-28T17:41:42;101095.59;;;0.85;100.00
10064;BME280;5071;52.360;13.134;2024-02-28T17:46:46;101093.19;;;0.65;100.00
10064;BME280;5071;52.360;13.134;2024-02-28T17:51:50;101092.03;;;0.83;100.00
10064;BME280;5071;52.360;13.134;2024-02-28T17:56:52;101089.53;;;0.60;100.00
10064;BME280;5071;52.360;13.134;2024-02-28T18:01:54;101092.69;;;0.50;100.00
10064;BME280;5071;52.360;13.134;2024-02-28T18:06:58;101096.06;;;0.22;100.00
10064;BME280;5071;52.360;13.134;2024-02-28T18:12:01;101089.28;;;0.03;100.00
10064;BME280;5071;52.360;13.134;2024-02-28T18:17:08;101102.81;;;-0.08;100.00
10064;BME280;5071;52.360;13.134;2024-02-28T18:22:12;101094.06;;;-0.10;100.00
10064;BME280;5071;52.360;13.134;2024-02-28T18:27:14;101103.53;;;-0.12;100.00
10064;BME280;5071;52.360;13.134;2024-02-28T20:21:12;101112.03;;;-1.50;100.00
10064;BME280;5071;52.360;13.134;2024-02-28T20:26:22;101110.94;;;-1.34;100.00
10064;BME280;5071;52.360;13.134;2024-02-28T20:31:24;101108.16;;;-1.18;100.00
10064;BME280;5071;52.360;13.134;2024-02-28T20:36:28;101110.59;;;-1.63;100.00
10064;BME280;5071;52.360;13.134;2024-02-28T20:41:30;101107.47;;;-1.75;100.00
10064;BME280;5071;52.360;13.134;2024-02-28T20:46:32;101106.66;;;-1.74;100.00
10064;BME280;5071;52.360;13.134;2024-02-28T20:51:35;101108.31;;;-1.76;100.00
10064;BME280;5071;52.360;13.134;2024-02-28T20:56:38;101107.56;;;-1.52;100.00
10064;BME280;5071;52.360;13.134;2024-02-28T21:01:40;101100.50;;;-1.76;100.00
10064;BME280;5071;52.360;13.134;2024-02-28T21:06:43;101090.72;;;-2.01;100.00
10064;BME280;5071;52.360;13.134;2024-02-28T21:11:45;101092.91;;;-1.91;100.00
10064;BME280;5071;52.360;13.134;2024-02-28T21:16:47;101101.31;;;-1.77;100.00
10064;BME280;5071;52.360;13.134;2024-02-28T21:21:50;101092.22;;;-1.46;100.00
10064;BME280;5071;52.360;13.134;2024-02-28T21:26:52;101088.75;;;-1.87;100.00
10064;BME280;5071;52.360;13.134;2024-02-28T21:31:54;101083.38;;;-1.90;100.00
10064;BME280;5071;52.360;13.134;2024-02-28T21:36:58;101076.78;;;-1.82;100.00
10064;BME280;5071;52.360;13.134;2024-02-28T21:42:00;101069.97;;;-1.80;100.00
10064;BME280;5071;52.360;13.134;2024-02-28T21:47:03;101073.63;;;-1.75;100.00
10064;BME280;5071;52.360;13.134;2024-02-28T21:52:06;101081.22;;;-2.01;100.00
10064;BME280;5071;52.360;13.134;2024-02-28T21:57:09;101075.59;;;-2.29;100.00
10064;BME280;5071;52.360;13.134;2024-02-28T22:02:11;101073.75;;;-1.93;100.00
10064;BME280;5071;52.360;13.134;2024-02-28T22:07:14;101072.69;;;-2.18;100.00
10064;BME280;5071;52.360;13.134;2024-02-28T22:12:16;101066.16;;;-2.27;100.00
10064;BME280;5071;52.360;13.134;2024-02-28T22:17:18;101060.28;;;-2.43;100.00
10064;BME280;5071;52.360;13.134;2024-02-28T22:22:23;101066.84;;;-2.31;100.00
10064;BME280;5071;52.360;13.134;2024-02-28T22:27:25;101069.47;;;-2.12;100.00
10064;BME280;5071;52.360;13.134;2024-02-28T22:32:27;101056.09;;;-2.39;100.00
10064;BME280;5071;52.360;13.134;2024-02-28T22:37:31;101059.59;;;-2.39;100.00
10064;BME280;5071;52.360;13.134;2024-02-28T22:42:32;101055.22;;;-2.40;100.00
10064;BME280;5071;52.360;13.134;2024-02-28T22:47:34;101061.50;;;-2.54;100.00
10064;BME280;5071;52.360;13.134;2024-02-28T22:52:37;101057.50;;;-2.65;100.00
10064;BME280;5071;52.360;13.134;2024-02-28T22:57:39;101055.00;;;-2.64;100.00
10064;BME280;5071;52.360;13.134;2024-02-28T23:02:41;101058.03;;;-2.72;100.00
10064;BME280;5071;52.360;13.134;2024-02-28T23:07:45;101048.94;;;-2.82;100.00
10064;BME280;5071;52.360;13.134;2024-02-28T23:12:49;101052.91;;;-2.53;100.00
10064;BME280;5071;52.360;13.134;2024-02-28T23:17:51;101040.38;;;-2.80;100.00
10064;BME280;5071;52.360;13.134;2024-02-28T23:22:54;101044.53;;;-2.65;100.00
10064;BME280;5071;52.360;13.134;2024-02-28T23:27:58;101036.81;;;-2.64;100.00
10064;BME280;5071;52.360;13.134;2024-02-28T23:33:00;101040.78;;;-2.52;100.00
10064;BME280;5071;52.360;13.134;2024-02-28T23:38:04;101051.09;;;-2.54;100.00
10064;BME280;5071;52.360;13.134;2024-02-28T23:43:06;101042.88;;;-2.83;100.00
10064;BME280;5071;52.360;13.134;2024-02-28T23:48:08;101041.13;;;-3.02;100.00
10064;BME280;5071;52.360;13.134;2024-02-28T23:53:12;101030.38;;;-3.09;100.00
10064;BME280;5071;52.360;13.134;2024-02-28T23:58:14;101026.00;;;-2.91;100.00
